sensor_id;sensor_type;location;lat;lon;timestamp;pressure;altitude;pressure_sealevel;temperature;humidity
55373;BME280;70018;47.838;16.490;2023-11-21T00:01:06;98860.44;;;8.99;62.80
55373;BME280;70018;47.838;16.490;2023-11-21T00:03:35;98859.72;;;9.02;63.23
55373;BME280;70018;47.838;16.490;2023-11-21T00:06:03;98858.63;;;9.06;63.23
55373;BME280;70018;47.838;16.490;2023-11-21T00:08:29;98857.91;;;9.10;62.65
55373;BME280;70018;47.838;16.490;2023-11-21T00:10:56;98856.31;;;9.08;62.88
55373;BME280;70018;47.838;16.490;2023-11-21T00:13:23;98861.50;;;9.14;62.39
55373;BME280;70018;47.838;16.490;2023-11-21T00:15:50;98862.34;;;9.18;62.40
55373;BME280;70018;47.838;16.490;2023-11-21T00:18:17;98865.53;;;9.20;62.19
55373;BME280;70018;47.838;16.490;2023-11-21T00:20:44;98859.28;;;9.23;61.87
55373;BME280;70018;47.838;16.490;2023-11-21T00:23:11;98857.72;;;9.22;62.09
55373;BME280;70018;47.838;16.490;2023-11-21T00:25:38;98850.31;;;9.26;61.66
55373;BME280;70018;47.838;16.490;2023-11-21T00:28:04;98838.59;;;9.29;62.13
55373;BME280;70018;47.838;16.490;2023-11-21T00:30:32;98844.91;;;9.29;62.20
55373;BME280;70018;47.838;16.490;2023-11-21T00:32:59;98843.69;;;9.27;61.61
55373;BME280;70018;47.838;16.490;2023-11-21T00:35:26;98835.44;;;9.27;61.97
55373;BME280;70018;47.838;16.490;2023-11-21T00:37:53;98840.94;;;9.27;61.97
55373;BME280;70018;47.838;16.490;2023-11-21T00:40:20;98846.44;;;9.27;62.33
55373;BME280;70018;47.838;16.490;2023-11-21T00:42:47;98850.31;;;9.26;62.18
55373;BME280;70018;47.838;16.490;2023-11-21T00:45:14;98850.03;;;9.31;62.07
55373;BME280;70018;47.838;16.490;2023-11-21T00:47:41;98852.47;;;9.36;61.35
55373;BME280;70018;47.838;16.490;2023-11-21T00:50:09;98841.88;;;9.38;61.34
55373;BME280;70018;47.838;16.490;2023-11-21T00:52:36;98842.38;;;9.43;61.09
55373;BME280;70018;47.838;16.490;2023-11-21T00:55:04;98849.91;;;9.46;61.73
55373;BME280;70018;47.838;16.490;2023-11-21T00:57:34;98847.31;;;9.57;60.78
55373;BME280;70018;47.838;16.490;2023-11-21T01:00:01;98846.31;;;9.68;60.09
55373;BME280;70018;47.838;16.490;2023-11-21T01:02:27;98832.16;;;9.66;60.16
55373;BME280;70018;47.838;16.490;2023-11-21T01:04:55;98839.19;;;9.64;60.36
55373;BME280;70018;47.838;16.490;2023-11-21T01:07:22;98836.84;;;9.66;59.61
55373;BME280;70018;47.838;16.490;2023-11-21T01:09:49;98826.28;;;9.68;60.00
55373;BME280;70018;47.838;16.490;2023-11-21T01:12:16;98829.75;;;9.65;59.98
55373;BME280;70018;47.838;16.490;2023-11-21T01:14:44;98829.88;;;9.72;59.87
55373;BME280;70018;47.838;16.490;2023-11-21T01:17:11;98825.94;;;9.73;59.98
55373;BME280;70018;47.838;16.490;2023-11-21T01:19:38;98818.09;;;9.71;59.93
55373;BME280;70018;47.838;16.490;2023-11-21T01:22:05;98808.31;;;9.74;60.11
55373;BME280;70018;47.838;16.490;2023-11-21T01:24:32;98802.81;;;9.74;60.12
55373;BME280;70018;47.838;16.490;2023-11-21T01:26:58;98810.63;;;9.72;60.24
55373;BME280;70018;47.838;16.490;2023-11-21T01:29:25;98813.31;;;9.68;60.65
55373;BME280;70018;47.838;16.490;2023-11-21T01:31:52;98812.09;;;9.66;60.61
55373;BME280;70018;47.838;16.490;2023-11-21T01:34:19;98808.22;;;9.67;60.27
55373;BME280;70018;47.838;16.490;2023-11-21T01:36:46;98801.44;;;9.61;60.50
55373;BME280;70018;47.838;16.490;2023-11-21T01:39:13;98811.63;;;9.60;60.78
55373;BME280;70018;47.838;16.490;2023-11-21T01:41:42;98806.94;;;9.61;60.73
55373;BME280;70018;47.838;16.490;2023-11-21T01:44:10;98816.63;;;9.55;60.95
55373;BME280;70018;47.838;16.490;2023-11-21T01:46:38;98813.44;;;9.49;61.28
55373;BME280;70018;47.838;16.490;2023-11-21T01:49:05;98791.69;;;9.41;61.34
55373;BME280;70018;47.838;16.490;2023-11-21T01:51:32;98805.75;;;9.36;61.49
55373;BME280;70018;47.838;16.490;2023-11-21T01:54:00;98796.28;;;9.33;61.39
55373;BME280;70018;47.838;16.490;2023-11-21T01:56:27;98791.47;;;9.27;62.08
55373;BME280;70018;47.838;16.490;2023-11-21T01:58:54;98791.38;;;9.20;62.27
55373;BME280;70018;47.838;16.490;2023-11-21T02:01:21;98793.19;;;9.12;61.96
55373;BME280;70018;47.838;16.490;2023-11-21T02:03:47;98790.81;;;9.11;62.39
55373;BME280;70018;47.838;16.490;2023-11-21T02:06:14;98784.88;;;9.08;62.67
55373;BME280;70018;47.838;16.490;2023-11-21T02:08:41;98793.44;;;9.03;62.36
55373;BME280;70018;47.838;16.490;2023-11-21T02:11:10;98792.13;;;8.97;62.82
55373;BME280;70018;47.838;16.490;2023-11-21T02:13:39;98792.59;;;8.99;63.27
55373;BME280;70018;47.838;16.490;2023-11-21T02:16:10;98784.34;;;8.99;63.07
55373;BME280;70018;47.838;16.490;2023-11-21T02:18:39;98780.28;;;8.90;62.95
55373;BME280;70018;47.838;16.490;2023-11-21T02:21:06;98780.69;;;8.69;63.70
55373;BME280;70018;47.838;16.490;2023-11-21T02:23:33;98777.03;;;8.84;64.27
55373;BME280;70018;47.838;16.490;2023-11-21T02:26:00;98770.06;;;8.90;64.09
55373;BME280;70018;47.838;16.490;2023-11-21T02:28:30;98770.97;;;8.98;63.39
55373;BME280;70018;47.838;16.490;2023-11-21T02:30:57;98762.44;;;8.80;64.00
55373;BME280;70018;47.838;16.490;2023-11-21T02:33:25;98763.66;;;8.41;64.56
55373;BME280;70018;47.838;16.490;2023-11-21T02:35:52;98762.13;;;8.05;65.45
55373;BME280;70018;47.838;16.490;2023-11-21T02:38:21;98768.00;;;7.85;65.67
55373;BME280;70018;47.838;16.490;2023-11-21T02:40:48;98761.91;;;7.75;66.59
55373;BME280;70018;47.838;16.490;2023-11-21T02:43:16;98753.63;;;7.72;66.19
55373;BME280;70018;47.838;16.490;2023-11-21T02:45:42;98758.97;;;7.65;66.98
55373;BME280;70018;47.838;16.490;2023-11-21T02:48:09;98767.09;;;7.61;66.81
55373;BME280;70018;47.838;16.490;2023-11-21T02:50:36;98768.31;;;7.64;67.63
55373;BME280;70018;47.838;16.490;2023-11-21T02:53:04;98766.09;;;7.69;68.02
55373;BME280;70018;47.838;16.490;2023-11-21T02:55:32;98774.75;;;7.71;67.93
55373;BME280;70018;47.838;16.490;2023-11-21T02:58:02;98773.94;;;7.71;67.05
55373;BME280;70018;47.838;16.490;2023-11-21T03:00:30;98776.25;;;7.69;67.10
55373;BME280;70018;47.838;16.490;2023-11-21T03:02:57;98759.72;;;7.65;66.93
55373;BME280;70018;47.838;16.490;2023-11-21T03:05:24;98757.34;;;7.64;67.06
55373;BME280;70018;47.838;16.490;2023-11-21T03:07:50;98759.56;;;7.58;67.22
55373;BME280;70018;47.838;16.490;2023-11-21T03:10:17;98762.75;;;7.60;68.02
55373;BME280;70018;47.838;16.490;2023-11-21T03:12:44;98766.22;;;7.57;67.86
55373;BME280;70018;47.838;16.490;2023-11-21T03:15:11;98765.75;;;7.55;67.62
55373;BME280;70018;47.838;16.490;2023-11-21T03:17:37;98761.38;;;7.51;67.86
55373;BME280;70018;47.838;16.490;2023-11-21T03:20:05;98767.22;;;7.49;67.96
55373;BME280;70018;47.838;16.490;2023-11-21T03:22:32;98780.81;;;7.46;67.73
55373;BME280;70018;47.838;16.490;2023-11-21T03:25:00;98778.00;;;7.42;67.51
55373;BME280;70018;47.838;16.490;2023-11-21T03:27:26;98772.09;;;7.40;68.93
55373;BME280;70018;47.838;16.490;2023-11-21T03:29:53;98772.38;;;7.35;68.86
55373;BME280;70018;47.838;16.490;2023-11-21T03:32:21;98777.38;;;7.33;69.36
55373;BME280;70018;47.838;16.490;2023-11-21T03:34:56;98784.91;;;7.36;68.55
55373;BME280;70018;47.838;16.490;2023-11-21T03:37:25;98771.28;;;7.40;68.96
55373;BME280;70018;47.838;16.490;2023-11-21T03:39:55;98767.06;;;7.42;68.53
55373;BME280;70018;47.838;16.490;2023-11-21T03:42:22;98755.38;;;7.45;68.52
55373;BME280;70018;47.838;16.490;2023-11-21T03:44:49;98748.47;;;7.51;68.10
55373;BME280;70018;47.838;16.490;2023-11-21T03:47:16;98738.19;;;7.83;68.62
55373;BME280;70018;47.838;16.490;2023-11-21T03:49:42;98734.34;;;8.26;67.86
55373;BME280;70018;47.838;16.490;2023-11-21T03:52:09;98730.81;;;8.45;66.78
55373;BME280;70018;47.838;16.490;2023-11-21T03:54:36;98732.69;;;8.60;66.59
55373;BME280;70018;47.838;16.490;2023-11-21T03:57:03;98738.31;;;8.70;65.76
55373;BME280;70018;47.838;16.490;2023-11-21T03:59:30;98737.25;;;8.75;65.95
55373;BME280;70018;47.838;16.490;2023-11-21T04:01:56;98740.84;;;8.79;65.20
55373;BME280;70018;47.838;16.490;2023-11-21T04:04:23;98755.91;;;8.88;65.17
55373;BME280;70018;47.838;16.490;2023-11-21T04:06:50;98755.38;;;9.02;65.46
55373;BME280;70018;47.838;16.490;2023-11-21T04:09:18;98762.53;;;9.10;64.64
55373;BME280;70018;47.838;16.490;2023-11-21T04:11:45;98764.94;;;9.12;64.90
55373;BME280;70018;47.838;16.490;2023-11-21T04:14:13;98774.44;;;9.18;65.12
55373;BME280;70018;47.838;16.490;2023-11-21T04:16:40;98774.44;;;9.18;64.81
55373;BME280;70018;47.838;16.490;2023-11-21T04:19:08;98767.47;;;9.24;64.82
55373;BME280;70018;47.838;16.490;2023-11-21T04:21:37;98765.88;;;9.23;63.27
55373;BME280;70018;47.838;16.490;2023-11-21T04:24:04;98769.13;;;9.28;63.07
55373;BME280;70018;47.838;16.490;2023-11-21T04:26:31;98765.56;;;9.28;64.32
55373;BME280;70018;47.838;16.490;2023-11-21T04:28:58;98767.88;;;9.22;64.28
55373;BME280;70018;47.838;16.490;2023-11-21T04:31:25;98765.78;;;9.16;64.72
55373;BME280;70018;47.838;16.490;2023-11-21T04:33:51;98771.88;;;9.28;65.21
55373;BME280;70018;47.838;16.490;2023-11-21T04:36:18;98769.22;;;9.35;64.09
55373;BME280;70018;47.838;16.490;2023-11-21T04:38:46;98766.13;;;9.37;63.99
55373;BME280;70018;47.838;16.490;2023-11-21T04:41:12;98766.13;;;9.37;62.03
55373;BME280;70018;47.838;16.490;2023-11-21T04:43:39;98770.03;;;9.36;62.57
55373;BME280;70018;47.838;16.490;2023-11-21T04:46:06;98779.38;;;9.31;61.58
55373;BME280;70018;47.838;16.490;2023-11-21T04:48:33;98791.28;;;9.39;62.60
55373;BME280;70018;47.838;16.490;2023-11-21T04:51:00;98773.59;;;9.40;62.86
55373;BME280;70018;47.838;16.490;2023-11-21T04:53:26;98784.25;;;9.41;62.49
55373;BME280;70018;47.838;16.490;2023-11-21T04:55:53;98786.78;;;9.53;61.16
55373;BME280;70018;47.838;16.490;2023-11-21T04:58:20;98780.44;;;9.49;61.63
55373;BME280;70018;47.838;16.490;2023-11-21T05:00:47;98782.72;;;9.44;61.88
55373;BME280;70018;47.838;16.490;2023-11-21T05:03:14;98785.03;;;9.42;61.81
55373;BME280;70018;47.838;16.490;2023-11-21T05:05:41;98780.22;;;9.35;61.81
55373;BME280;70018;47.838;16.490;2023-11-21T05:08:07;98780.19;;;9.32;61.95
55373;BME280;70018;47.838;16.490;2023-11-21T05:10:34;98780.06;;;9.25;61.74
55373;BME280;70018;47.838;16.490;2023-11-21T05:13:04;98794.22;;;9.27;62.43
55373;BME280;70018;47.838;16.490;2023-11-21T05:15:36;98786.41;;;9.29;62.02
55373;BME280;70018;47.838;16.490;2023-11-21T05:18:04;98782.81;;;9.25;62.33
55373;BME280;70018;47.838;16.490;2023-11-21T05:20:31;98795.78;;;9.28;62.63
55373;BME280;70018;47.838;16.490;2023-11-21T05:22:59;98796.06;;;9.19;62.17
55373;BME280;70018;47.838;16.490;2023-11-21T05:25:26;98793.94;;;9.09;63.40
55373;BME280;70018;47.838;16.490;2023-11-21T05:27:53;98797.78;;;9.04;63.17
55373;BME280;70018;47.838;16.490;2023-11-21T05:30:21;98797.22;;;8.95;62.70
55373;BME280;70018;47.838;16.490;2023-11-21T05:32:48;98805.34;;;8.88;62.89
55373;BME280;70018;47.838;16.490;2023-11-21T05:35:16;98810.69;;;8.81;63.32
55373;BME280;70018;47.838;16.490;2023-11-21T05:37:44;98816.06;;;8.74;63.19
55373;BME280;70018;47.838;16.490;2023-11-21T05:40:13;98826.84;;;8.64;63.38
55373;BME280;70018;47.838;16.490;2023-11-21T05:42:40;98830.69;;;8.59;63.44
55373;BME280;70018;47.838;16.490;2023-11-21T05:45:08;98837.97;;;8.52;63.62
55373;BME280;70018;47.838;16.490;2023-11-21T05:47:44;98843.53;;;8.36;64.53
55373;BME280;70018;47.838;16.490;2023-11-21T05:50:15;98844.19;;;8.29;64.86
55373;BME280;70018;47.838;16.490;2023-11-21T05:52:43;98850.91;;;8.32;64.53
55373;BME280;70018;47.838;16.490;2023-11-21T05:55:11;98845.69;;;8.27;65.14
55373;BME280;70018;47.838;16.490;2023-11-21T05:57:38;98850.28;;;8.23;65.52
55373;BME280;70018;47.838;16.490;2023-11-21T06:00:07;98844.72;;;8.19;64.89
55373;BME280;70018;47.838;16.490;2023-11-21T06:02:40;98843.00;;;8.30;65.54
55373;BME280;70018;47.838;16.490;2023-11-21T06:05:08;98848.44;;;8.27;65.37
55373;BME280;70018;47.838;16.490;2023-11-21T06:07:35;98838.59;;;8.26;65.21
55373;BME280;70018;47.838;16.490;2023-11-21T06:10:06;98844.91;;;8.26;65.43
55373;BME280;70018;47.838;16.490;2023-11-21T06:12:35;98848.88;;;8.29;65.84
55373;BME280;70018;47.838;16.490;2023-11-21T06:15:03;98845.75;;;8.30;65.71
55373;BME280;70018;47.838;16.490;2023-11-21T06:17:38;98845.13;;;8.37;65.06
55373;BME280;70018;47.838;16.490;2023-11-21T06:20:07;98849.91;;;8.40;65.71
55373;BME280;70018;47.838;16.490;2023-11-21T06:22:42;98841.28;;;8.41;65.28
55373;BME280;70018;47.838;16.490;2023-11-21T06:25:10;98850.66;;;8.40;64.95
55373;BME280;70018;47.838;16.490;2023-11-21T06:27:39;98845.66;;;8.43;65.76
55373;BME280;70018;47.838;16.490;2023-11-21T06:30:07;98856.25;;;8.44;64.97
55373;BME280;70018;47.838;16.490;2023-11-21T06:32:36;98847.72;;;8.49;65.32
55373;BME280;70018;47.838;16.490;2023-11-21T06:35:03;98855.66;;;8.54;65.26
55373;BME280;70018;47.838;16.490;2023-11-21T06:37:31;98861.00;;;8.66;63.55
55373;BME280;70018;47.838;16.490;2023-11-21T06:39:59;98864.59;;;8.70;63.50
55373;BME280;70018;47.838;16.490;2023-11-21T06:42:27;98860.03;;;8.78;63.54
55373;BME280;70018;47.838;16.490;2023-11-21T06:44:55;98861.72;;;8.82;63.89
55373;BME280;70018;47.838;16.490;2023-11-21T06:47:24;98870.44;;;8.88;63.92
55373;BME280;70018;47.838;16.490;2023-11-21T06:49:56;98873.75;;;8.97;63.08
55373;BME280;70018;47.838;16.490;2023-11-21T06:52:24;98878.56;;;9.03;62.86
55373;BME280;70018;47.838;16.490;2023-11-21T06:54:50;98874.38;;;9.10;62.58
55373;BME280;70018;47.838;16.490;2023-11-21T06:57:17;98873.22;;;9.11;62.37
55373;BME280;70018;47.838;16.490;2023-11-21T06:59:44;98883.59;;;9.21;62.70
55373;BME280;70018;47.838;16.490;2023-11-21T07:02:11;98882.06;;;9.23;62.16
55373;BME280;70018;47.838;16.490;2023-11-21T07:04:38;98888.00;;;9.25;62.60
55373;BME280;70018;47.838;16.490;2023-11-21T07:07:06;98895.94;;;9.30;61.90
55373;BME280;70018;47.838;16.490;2023-11-21T07:09:33;98892.41;;;9.30;62.42
55373;BME280;70018;47.838;16.490;2023-11-21T07:12:00;98891.31;;;9.34;62.19
55373;BME280;70018;47.838;16.490;2023-11-21T07:14:28;98902.34;;;9.38;61.86
55373;BME280;70018;47.838;16.490;2023-11-21T07:16:54;98895.41;;;9.44;62.15
55373;BME280;70018;47.838;16.490;2023-11-21T07:19:21;98891.97;;;9.50;61.10
55373;BME280;70018;47.838;16.490;2023-11-21T07:21:48;98894.06;;;9.57;61.37
55373;BME280;70018;47.838;16.490;2023-11-21T07:24:18;98898.47;;;9.65;61.07
55373;BME280;70018;47.838;16.490;2023-11-21T07:26:45;98892.25;;;9.68;60.86
55373;BME280;70018;47.838;16.490;2023-11-21T07:29:11;98894.69;;;9.73;60.75
55373;BME280;70018;47.838;16.490;2023-11-21T07:31:40;98890.47;;;9.79;60.32
55373;BME280;70018;47.838;16.490;2023-11-21T07:34:08;98895.66;;;9.84;60.50
55373;BME280;70018;47.838;16.490;2023-11-21T07:36:35;98895.25;;;9.82;60.44
55373;BME280;70018;47.838;16.490;2023-11-21T07:39:02;98898.72;;;9.79;60.70
55373;BME280;70018;47.838;16.490;2023-11-21T07:41:29;98897.88;;;9.75;60.59
55373;BME280;70018;47.838;16.490;2023-11-21T07:43:57;98887.97;;;9.70;60.88
55373;BME280;70018;47.838;16.490;2023-11-21T07:46:26;98902.75;;;9.62;60.95
55373;BME280;70018;47.838;16.490;2023-11-21T07:48:53;98901.53;;;9.60;61.25
55373;BME280;70018;47.838;16.490;2023-11-21T07:51:21;98900.69;;;9.56;61.76
55373;BME280;70018;47.838;16.490;2023-11-21T07:53:48;98892.03;;;9.54;61.81
55373;BME280;70018;47.838;16.490;2023-11-21T07:56:16;98910.47;;;9.53;61.44
55373;BME280;70018;47.838;16.490;2023-11-21T07:58:42;98905.34;;;9.52;61.81
55373;BME280;70018;47.838;16.490;2023-11-21T08:01:10;98907.66;;;9.50;61.68
55373;BME280;70018;47.838;16.490;2023-11-21T08:03:38;98908.09;;;9.52;62.05
55373;BME280;70018;47.838;16.490;2023-11-21T08:06:05;98904.56;;;9.51;61.90
55373;BME280;70018;47.838;16.490;2023-11-21T08:08:32;98910.06;;;9.51;62.22
55373;BME280;70018;47.838;16.490;2023-11-21T08:10:59;98906.28;;;9.59;62.17
55373;BME280;70018;47.838;16.490;2023-11-21T08:13:29;98903.94;;;9.61;62.21
55373;BME280;70018;47.838;16.490;2023-11-21T08:15:58;98903.97;;;9.65;61.94
55373;BME280;70018;47.838;16.490;2023-11-21T08:18:28;98905.59;;;9.66;62.55
55373;BME280;70018;47.838;16.490;2023-11-21T08:20:56;98905.66;;;9.69;62.39
55373;BME280;70018;47.838;16.490;2023-11-21T08:23:24;98904.53;;;9.74;61.83
55373;BME280;70018;47.838;16.490;2023-11-21T08:25:53;98908.13;;;9.78;61.84
55373;BME280;70018;47.838;16.490;2023-11-21T08:28:21;98901.09;;;9.81;62.09
55373;BME280;70018;47.838;16.490;2023-11-21T08:30:52;98899.56;;;9.83;61.81
55373;BME280;70018;47.838;16.490;2023-11-21T08:33:20;98900.41;;;9.87;61.98
55373;BME280;70018;47.838;16.490;2023-11-21T08:35:47;98898.56;;;9.68;62.71
55373;BME280;70018;47.838;16.490;2023-11-21T08:38:14;98899.78;;;9.48;63.50
55373;BME280;70018;47.838;16.490;2023-11-21T08:40:40;98904.84;;;9.24;63.97
55373;BME280;70018;47.838;16.490;2023-11-21T08:43:07;98901.56;;;9.37;63.97
55373;BME280;70018;47.838;16.490;2023-11-21T08:45:34;98900.47;;;9.42;64.29
55373;BME280;70018;47.838;16.490;2023-11-21T08:48:01;98899.09;;;9.55;63.00
55373;BME280;70018;47.838;16.490;2023-11-21T08:50:29;98900.78;;;9.59;63.21
55373;BME280;70018;47.838;16.490;2023-11-21T08:52:55;98903.97;;;9.65;63.31
55373;BME280;70018;47.838;16.490;2023-11-21T08:55:22;98902.09;;;9.69;63.61
55373;BME280;70018;47.838;16.490;2023-11-21T08:57:49;98914.66;;;9.70;62.92
55373;BME280;70018;47.838;16.490;2023-11-21T09:00:17;98906.50;;;9.73;63.49
55373;BME280;70018;47.838;16.490;2023-11-21T09:02:45;98915.66;;;9.81;62.63
55373;BME280;70018;47.838;16.490;2023-11-21T09:05:14;98916.19;;;9.90;62.94
55373;BME280;70018;47.838;16.490;2023-11-21T09:07:42;98917.03;;;9.94;62.54
55373;BME280;70018;47.838;16.490;2023-11-21T09:10:09;98916.34;;;10.01;62.68
55373;BME280;70018;47.838;16.490;2023-11-21T09:12:37;98908.94;;;10.05;62.54
55373;BME280;70018;47.838;16.490;2023-11-21T09:15:05;98910.22;;;10.11;62.81
55373;BME280;70018;47.838;16.490;2023-11-21T09:17:33;98917.78;;;10.17;63.20
55373;BME280;70018;47.838;16.490;2023-11-21T09:20:04;98910.91;;;10.30;63.17
55373;BME280;70018;47.838;16.490;2023-11-21T09:22:32;98907.09;;;10.39;62.61
55373;BME280;70018;47.838;16.490;2023-11-21T09:24:59;98908.66;;;10.40;61.60
55373;BME280;70018;47.838;16.490;2023-11-21T09:27:26;98918.19;;;10.46;61.39
55373;BME280;70018;47.838;16.490;2023-11-21T09:29:53;98915.19;;;10.54;61.21
55373;BME280;70018;47.838;16.490;2023-11-21T09:32:20;98912.47;;;10.58;61.29
55373;BME280;70018;47.838;16.490;2023-11-21T09:34:48;98910.50;;;10.58;60.80
55373;BME280;70018;47.838;16.490;2023-11-21T09:37:16;98907.28;;;10.53;61.19
55373;BME280;70018;47.838;16.490;2023-11-21T09:39:43;98906.13;;;10.54;60.94
55373;BME280;70018;47.838;16.490;2023-11-21T09:44:51;98900.72;;;10.61;60.38
55373;BME280;70018;47.838;16.490;2023-11-21T09:47:24;98900.00;;;10.67;61.12
55373;BME280;70018;47.838;16.490;2023-11-21T09:49:52;98893.41;;;10.75;60.85
55373;BME280;70018;47.838;16.490;2023-11-21T09:52:27;98895.50;;;10.85;59.28
55373;BME280;70018;47.838;16.490;2023-11-21T09:54:55;98890.38;;;10.84;59.95
55373;BME280;70018;47.838;16.490;2023-11-21T09:57:25;98893.94;;;10.88;60.52
55373;BME280;70018;47.838;16.490;2023-11-21T09:59:53;98894.69;;;10.85;60.94
55373;BME280;70018;47.838;16.490;2023-11-21T10:02:26;98897.69;;;10.69;59.53
55373;BME280;70018;47.838;16.490;2023-11-21T10:04:55;98893.72;;;10.67;60.43
55373;BME280;70018;47.838;16.490;2023-11-21T10:07:23;98884.25;;;10.68;60.15
55373;BME280;70018;47.838;16.490;2023-11-21T10:09:51;98883.38;;;10.60;60.03
55373;BME280;70018;47.838;16.490;2023-11-21T10:12:18;98887.28;;;10.56;59.89
55373;BME280;70018;47.838;16.490;2023-11-21T10:14:48;98875.59;;;10.66;60.16
55373;BME280;70018;47.838;16.490;2023-11-21T10:17:17;98882.72;;;11.04;59.79
55373;BME280;70018;47.838;16.490;2023-11-21T10:19:48;98867.41;;;11.06;59.55
55373;BME280;70018;47.838;16.490;2023-11-21T10:22:15;98885.00;;;10.98;59.24
55373;BME280;70018;47.838;16.490;2023-11-21T10:24:43;98882.66;;;10.96;60.31
55373;BME280;70018;47.838;16.490;2023-11-21T10:27:19;98875.06;;;10.90;59.88
55373;BME280;70018;47.838;16.490;2023-11-21T10:29:46;98866.38;;;11.21;60.13
55373;BME280;70018;47.838;16.490;2023-11-21T10:32:12;98863.22;;;11.67;59.21
55373;BME280;70018;47.838;16.490;2023-11-21T10:34:39;98861.63;;;11.65;58.69
55373;BME280;70018;47.838;16.490;2023-11-21T10:37:12;98850.84;;;11.46;59.96
55373;BME280;70018;47.838;16.490;2023-11-21T10:39:39;98855.56;;;11.49;60.07
55373;BME280;70018;47.838;16.490;2023-11-21T10:42:08;98850.00;;;11.39;60.16
55373;BME280;70018;47.838;16.490;2023-11-21T10:44:36;98860.81;;;11.18;59.93
55373;BME280;70018;47.838;16.490;2023-11-21T10:47:04;98849.06;;;10.87;61.38
55373;BME280;70018;47.838;16.490;2023-11-21T10:49:31;98857.53;;;10.68;61.93
55373;BME280;70018;47.838;16.490;2023-11-21T10:51:59;98857.38;;;10.54;62.18
55373;BME280;70018;47.838;16.490;2023-11-21T10:54:26;98872.66;;;10.85;62.86
55373;BME280;70018;47.838;16.490;2023-11-21T10:56:56;98869.56;;;10.90;62.50
55373;BME280;70018;47.838;16.490;2023-11-21T10:59:23;98872.84;;;10.99;61.93
55373;BME280;70018;47.838;16.490;2023-11-21T11:01:53;98868.22;;;11.10;61.43
55373;BME280;70018;47.838;16.490;2023-11-21T11:04:22;98861.69;;;10.88;62.74
55373;BME280;70018;47.838;16.490;2023-11-21T11:06:54;98868.53;;;10.68;63.08
55373;BME280;70018;47.838;16.490;2023-11-21T11:09:22;98864.19;;;11.00;63.05
55373;BME280;70018;47.838;16.490;2023-11-21T11:11:51;98859.16;;;11.53;61.65
55373;BME280;70018;47.838;16.490;2023-11-21T11:14:19;98858.75;;;11.99;58.72
55373;BME280;70018;47.838;16.490;2023-11-21T11:16:46;98850.69;;;11.73;58.94
55373;BME280;70018;47.838;16.490;2023-11-21T11:19:15;98849.28;;;11.49;59.44
55373;BME280;70018;47.838;16.490;2023-11-21T11:27:11;98856.50;;;12.22;57.94
55373;BME280;70018;47.838;16.490;2023-11-21T11:32:38;98854.19;;;11.70;59.21
55373;BME280;70018;47.838;16.490;2023-11-21T11:37:43;98861.88;;;11.46;59.62
55373;BME280;70018;47.838;16.490;2023-11-21T11:40:13;98859.41;;;11.82;59.37
55373;BME280;70018;47.838;16.490;2023-11-21T11:42:58;98854.22;;;12.35;58.50
55373;BME280;70018;47.838;16.490;2023-11-21T11:45:34;98857.50;;;12.61;58.35
55373;BME280;70018;47.838;16.490;2023-11-21T11:48:02;98853.94;;;12.57;55.81
55373;BME280;70018;47.838;16.490;2023-11-21T11:50:30;98854.31;;;12.56;58.16
55373;BME280;70018;47.838;16.490;2023-11-21T11:53:13;98858.81;;;12.96;56.33
55373;BME280;70018;47.838;16.490;2023-11-21T11:55:40;98848.63;;;13.35;56.87
55373;BME280;70018;47.838;16.490;2023-11-21T11:58:08;98847.44;;;13.43;56.03
55373;BME280;70018;47.838;16.490;2023-11-21T12:00:35;98844.19;;;13.02;57.11
55373;BME280;70018;47.838;16.490;2023-11-21T12:03:06;98853.63;;;12.83;57.35
55373;BME280;70018;47.838;16.490;2023-11-21T12:05:35;98850.44;;;12.74;56.96
55373;BME280;70018;47.838;16.490;2023-11-21T12:08:06;98857.00;;;12.38;57.56
55373;BME280;70018;47.838;16.490;2023-11-21T12:10:37;98857.22;;;12.08;57.84
55373;BME280;70018;47.838;16.490;2023-11-21T12:13:07;98859.34;;;11.75;58.57
55373;BME280;70018;47.838;16.490;2023-11-21T12:15:34;98861.63;;;11.65;58.04
55373;BME280;70018;47.838;16.490;2023-11-21T12:18:02;98874.88;;;11.49;59.09
55373;BME280;70018;47.838;16.490;2023-11-21T12:20:30;98866.09;;;11.33;59.72
55373;BME280;70018;47.838;16.490;2023-11-21T12:22:58;98867.66;;;11.34;60.13
55373;BME280;70018;47.838;16.490;2023-11-21T12:25:28;98865.25;;;11.29;59.84
55373;BME280;70018;47.838;16.490;2023-11-21T12:27:59;98872.69;;;11.25;59.79
55373;BME280;70018;47.838;16.490;2023-11-21T12:30:29;98861.28;;;11.27;59.60
55373;BME280;70018;47.838;16.490;2023-11-21T12:32:59;98868.38;;;11.24;59.90
55373;BME280;70018;47.838;16.490;2023-11-21T12:35:28;98866.09;;;11.37;60.30
55373;BME280;70018;47.838;16.490;2023-11-21T12:37:57;98868.44;;;11.31;60.67
55373;BME280;70018;47.838;16.490;2023-11-21T12:40:24;98874.59;;;11.18;61.10
55373;BME280;70018;47.838;16.490;2023-11-21T12:42:53;98872.56;;;11.11;60.56
55373;BME280;70018;47.838;16.490;2023-11-21T12:45:27;98876.75;;;10.98;62.06
55373;BME280;70018;47.838;16.490;2023-11-21T12:48:00;98863.66;;;10.88;61.97
55373;BME280;70018;47.838;16.490;2023-11-21T12:50:31;98864.81;;;10.87;61.46
55373;BME280;70018;47.838;16.490;2023-11-21T12:53:05;98867.56;;;10.87;62.71
55373;BME280;70018;47.838;16.490;2023-11-21T12:55:35;98864.81;;;10.87;62.41
55373;BME280;70018;47.838;16.490;2023-11-21T12:58:08;98860.50;;;10.89;62.95
55373;BME280;70018;47.838;16.490;2023-11-21T13:00:44;98849.88;;;10.88;62.13
55373;BME280;70018;47.838;16.490;2023-11-21T13:03:13;98854.56;;;10.84;63.01
55373;BME280;70018;47.838;16.490;2023-11-21T13:05:46;98854.50;;;10.80;62.44
55373;BME280;70018;47.838;16.490;2023-11-21T13:08:15;98862.38;;;10.82;62.62
55373;BME280;70018;47.838;16.490;2023-11-21T13:10:49;98854.91;;;10.79;63.31
55373;BME280;70018;47.838;16.490;2023-11-21T13:13:17;98861.56;;;10.78;63.08
55373;BME280;70018;47.838;16.490;2023-11-21T13:15:53;98862.66;;;10.70;62.93